Time;durP1;ratioP1;P1;durP2;ratioP2;P2;SDS_P1;SDS_P2;PMS_P1;PMS_P2;Temp;Humidity;BMP_temperature;BMP_pressure;BME280_temperature;BME280_humidity;BME280_pressure;Samples;Min_cycle;Max_cycle;Signal;HPM_P1;HPM_P2
2022/09/24 00:04:10;;;;;;;0.50;0.50;;;;;;;8.04;65.22;100749.97;18497915;32;20111;-56
2022/09/24 00:14:16;;;;;;;0.70;0.70;;;;;;;8.02;64.96;100745.59;18498741;32;20092;-56
2022/09/24 00:34:37;;;;;;;0.60;0.60;;;;;;;7.83;65.16;100745.34;18497556;32;20385;-56
2022/09/24 00:44:53;;;;;;;0.50;0.50;;;;;;;7.57;66.42;100745.78;18497856;32;20111;-56
2022/09/24 00:54:58;;;;;;;0.68;0.68;;;;;;;7.87;65.04;100725.47;18498520;32;20458;-56
2022/09/24 01:05:01;;;;;;;0.90;0.90;;;;;;;7.98;64.39;100725.63;18496923;32;20097;-56
2022/09/24 01:15:14;;;;;;;0.60;0.60;;;;;;;7.36;67.46;100720.38;18496765;32;20110;-56
2022/09/24 01:25:24;;;;;;;0.50;0.50;;;;;;;7.50;67.37;100715.41;18496331;32;20164;-56
2022/09/24 01:35:31;;;;;;;0.60;0.60;;;;;;;7.66;66.20;100705.22;18496218;32;20111;-56
2022/09/24 01:45:36;;;;;;;0.55;0.55;;;;;;;7.42;67.66;100702.28;18495650;32;20107;-56
2022/09/24 01:55:44;;;;;;;0.50;0.50;;;;;;;7.75;66.27;100705.34;18494781;32;20111;-56
2022/09/24 02:05:50;;;;;;;0.50;0.50;;;;;;;7.58;66.01;100690.38;18494211;32;20101;-56
2022/09/24 02:15:58;;;;;;;1.12;1.12;;;;;;;7.39;66.72;100690.97;18494171;32;20107;-56
2022/09/24 02:26:02;;;;;;;0.82;0.82;;;;;;;7.43;66.52;100701.41;18496304;32;20116;-56
2022/09/24 02:36:07;;;;;;;0.82;0.82;;;;;;;7.18;67.34;100703.66;18502534;32;20429;-56
2022/09/24 02:46:11;;;;;;;0.90;0.90;;;;;;;7.33;66.14;100697.81;18501103;32;20089;-56
2022/09/24 02:56:15;;;;;;;0.60;0.60;;;;;;;7.08;67.85;100706.94;18501079;32;20403;-56
2022/09/24 03:06:18;;;;;;;0.55;0.55;;;;;;;7.27;67.32;100704.66;18500700;32;20104;-56
2022/09/24 03:16:23;;;;;;;0.60;0.60;;;;;;;7.24;67.75;100709.78;18501376;32;20103;-56
2022/09/24 03:26:26;;;;;;;1.65;1.33;;;;;;;7.29;68.32;100695.16;18500123;32;20092;-56
2022/09/24 03:36:31;;;;;;;0.50;0.50;;;;;;;7.41;68.17;100694.47;18498587;32;20093;-56
2022/09/24 03:46:34;;;;;;;0.40;0.40;;;;;;;7.63;68.13;100688.75;18498926;32;20100;-56
2022/09/24 03:56:39;;;;;;;1.02;1.00;;;;;;;7.82;68.41;100673.41;18498877;32;20093;-56
2022/09/24 04:06:42;;;;;;;0.60;0.60;;;;;;;8.07;69.16;100668.53;18499645;32;20510;-56
2022/09/24 04:16:47;;;;;;;0.60;0.60;;;;;;;7.96;69.49;100662.31;18498304;32;20115;-56
2022/09/24 04:26:50;;;;;;;0.52;0.52;;;;;;;8.11;68.94;100662.50;18498045;32;20140;-56
2022/09/24 04:36:54;;;;;;;0.70;0.70;;;;;;;8.03;69.43;100662.44;18497897;32;20162;-56
2022/09/24 04:47:01;;;;;;;0.62;0.62;;;;;;;7.80;70.05;100667.31;18497343;32;20108;-56
2022/09/24 04:57:06;;;;;;;0.70;0.70;;;;;;;8.07;68.72;100662.44;18497777;32;20089;-56
2022/09/24 05:07:10;;;;;;;0.70;0.70;;;;;;;7.89;68.26;100663.97;18497198;32;20490;-56
2022/09/24 05:17:14;;;;;;;0.60;0.60;;;;;;;8.02;68.62;100668.47;18496923;32;20158;-56
2022/09/24 05:27:18;;;;;;;0.70;0.70;;;;;;;8.29;68.09;100656.63;18496165;32;20171;-56
2022/09/24 05:37:22;;;;;;;0.85;0.85;;;;;;;8.17;68.81;100667.78;18496022;32;20111;-56
2022/09/24 05:47:26;;;;;;;0.40;0.40;;;;;;;8.52;69.02;100676.88;18496731;32;20115;-56
2022/09/24 05:57:31;;;;;;;0.70;0.70;;;;;;;8.77;69.32;100665.84;18479760;32;20097;-56
2022/09/24 06:07:34;;;;;;;1.65;1.05;;;;;;;9.33;68.41;100671.53;18495322;32;20085;-56
2022/09/24 06:17:38;;;;;;;1.30;1.20;;;;;;;9.42;68.87;100676.78;18494974;32;20453;-56
2022/09/24 06:27:41;;;;;;;0.60;0.60;;;;;;;9.56;69.15;100679.50;18493388;32;20112;-56
2022/09/24 06:37:48;;;;;;;0.80;0.80;;;;;;;10.37;68.43;100677.25;18492910;32;20084;-56
2022/09/24 06:47:54;;;;;;;0.40;0.40;;;;;;;11.81;63.91;100681.69;18492161;32;20084;-56
2022/09/24 06:58:10;;;;;;;1.77;0.93;;;;;;;12.56;62.88;100684.87;18491530;32;20113;-56
2022/09/24 07:08:13;;;;;;;0.73;0.73;;;;;;;12.40;63.03;100675.34;18490598;32;20138;-56
2022/09/24 07:18:19;;;;;;;0.57;0.57;;;;;;;12.73;63.11;100676.91;18499652;32;20144;-56
2022/09/24 07:28:22;;;;;;;0.35;0.35;;;;;;;14.18;60.91;100675.56;18500925;32;20105;-56
2022/09/24 07:38:27;;;;;;;0.68;0.68;;;;;;;14.77;58.50;100697.56;18499691;32;20399;-56
2022/09/24 07:48:30;;;;;;;0.37;0.37;;;;;;;15.08;57.89;100703.22;18499106;32;20142;-56
2022/09/24 07:58:34;;;;;;;0.50;0.50;;;;;;;15.03;57.68;100707.66;18498787;32;20523;-56
2022/09/24 08:08:38;;;;;;;0.80;0.55;;;;;;;15.48;55.82;100699.00;18498599;32;20183;-56
2022/09/24 08:18:43;;;;;;;0.60;0.60;;;;;;;15.73;54.28;100695.06;18498563;32;20439;-56
2022/09/24 08:28:50;;;;;;;0.32;0.32;;;;;;;15.98;52.68;100694.63;18497831;32;20440;-57
2022/09/24 08:38:55;;;;;;;0.30;0.30;;;;;;;16.42;52.09;100681.41;18498109;32;20097;-56
2022/09/24 08:48:59;;;;;;;0.45;0.45;;;;;;;16.54;51.49;100681.13;18495704;32;20118;-56
2022/09/24 08:59:11;;;;;;;0.50;0.50;;;;;;;16.84;50.73;100667.28;18497112;32;20093;-57
2022/09/24 09:09:16;;;;;;;0.55;0.55;;;;;;;17.79;47.65;100663.09;18496828;32;20346;-56
2022/09/24 09:19:25;;;;;;;0.57;0.40;;;;;;;18.43;45.97;100645.41;18493807;32;20092;-56
2022/09/24 09:29:29;;;;;;;0.52;0.52;;;;;;;18.16;46.53;100622.44;18494483;32;20088;-56
2022/09/24 09:39:42;;;;;;;0.65;0.43;;;;;;;18.63;45.67;100626.28;18494730;32;20175;-56
2022/09/24 09:49:47;;;;;;;0.20;0.20;;;;;;;19.53;43.35;100625.06;18495557;32;20076;-56
2022/09/24 09:59:53;;;;;;;0.35;0.35;;;;;;;19.54;42.83;100614.41;18495172;32;20128;-56
2022/09/24 10:10:02;;;;;;;0.20;0.20;;;;;;;19.50;41.38;100607.50;18494182;32;20117;-56
2022/09/24 10:20:14;;;;;;;0.30;0.30;;;;;;;19.53;39.88;100596.78;18429909;32;20146;-56
2022/09/24 10:30:36;;;;;;;0.30;0.30;;;;;;;19.01;39.82;100601.28;18428339;32;20100;-56
2022/09/24 10:40:40;;;;;;;;;;;;;;;19.95;37.82;100592.59;18428594;32;20176;-56
2022/09/24 10:50:47;;;;;;;0.20;0.20;;;;;;;20.28;36.83;100585.19;18434245;32;20059;-56
2022/09/24 11:01:00;;;;;;;0.20;0.20;;;;;;;20.65;34.64;100571.28;18436189;32;20073;-56
2022/09/24 11:11:13;;;;;;;0.10;0.10;;;;;;;20.58;36.98;100569.84;18435872;32;20111;-56
2022/09/24 11:21:28;;;;;;;0.80;0.40;;;;;;;21.33;34.85;100551.63;18435943;32;20471;-57
2022/09/24 11:31:36;;;;;;;0.22;0.22;;;;;;;21.59;35.07;100535.41;18435456;32;20081;-56
2022/09/24 11:41:49;;;;;;;0.10;0.10;;;;;;;20.82;35.29;100551.19;18435452;32;20107;-56
2022/09/24 11:51:55;;;;;;;0.10;0.10;;;;;;;21.74;32.87;100523.25;18435854;32;20453;-56
2022/09/24 12:02:03;;;;;;;0.10;0.10;;;;;;;21.00;34.60;100524.78;18433516;32;20366;-56
2022/09/24 12:12:08;;;;;;;0.10;0.10;;;;;;;20.95;35.01;100508.19;18433787;32;20089;-56
2022/09/24 12:22:13;;;;;;;0.10;0.10;;;;;;;21.55;34.04;100515.25;18434088;32;20460;-56
2022/09/24 12:42:43;;;;;;;0.10;0.10;;;;;;;21.52;34.96;100471.09;18433505;32;20092;-56
2022/09/24 12:52:47;;;;;;;0.10;0.10;;;;;;;21.40;35.39;100482.31;18433363;32;20112;-56
2022/09/24 13:02:53;;;;;;;0.10;0.10;;;;;;;21.58;35.97;100473.47;18432752;32;20373;-56
2022/09/24 13:12:58;;;;;;;0.15;0.15;;;;;;;21.38;34.91;100468.22;18432990;32;20092;-56
2022/09/24 13:23:14;;;;;;;0.28;0.28;;;;;;;20.83;36.58;100452.09;18432218;32;20084;-56
2022/09/24 13:33:22;;;;;;;0.15;0.15;;;;;;;20.79;36.58;100461.09;18417819;32;20097;-56
2022/09/24 13:43:36;;;;;;;0.10;0.10;;;;;;;20.91;38.17;100443.78;18431542;32;20130;-56
2022/09/24 13:53:43;;;;;;;0.20;0.20;;;;;;;21.10;37.03;100437.63;18430800;32;20093;-56
2022/09/24 14:03:54;;;;;;;0.20;0.20;;;;;;;21.28;35.96;100430.63;18417121;32;20463;-56
2022/09/24 14:13:58;;;;;;;0.15;0.15;;;;;;;21.36;36.90;100425.84;18430046;32;20121;-56
2022/09/24 14:24:06;;;;;;;0.20;0.20;;;;;;;20.99;36.53;100420.41;18430997;32;20118;-56
2022/09/24 14:34:23;;;;;;;0.20;0.20;;;;;;;21.06;36.08;100421.03;18434743;32;20154;-56
2022/09/24 14:44:29;;;;;;;0.20;0.20;;;;;;;20.79;37.84;100408.03;18437035;32;20807;-56
2022/09/24 14:54:34;;;;;;;0.10;0.10;;;;;;;20.73;38.19;100408.31;18436636;32;20568;-56
2022/09/24 15:04:38;;;;;;;0.22;0.22;;;;;;;20.68;38.17;100404.97;18435804;32;20443;-56
2022/09/24 15:14:42;;;;;;;0.20;0.20;;;;;;;20.34;37.88;100417.94;18435913;32;20138;-56
2022/09/24 15:24:46;;;;;;;0.20;0.20;;;;;;;20.30;38.59;100422.53;18435598;32;20107;-56
2022/09/24 15:34:49;;;;;;;0.20;0.20;;;;;;;20.31;38.47;100411.00;18435915;32;20108;-56
2022/09/24 15:44:54;;;;;;;0.13;0.13;;;;;;;20.20;39.29;100406.13;18435335;32;20092;-56
2022/09/24 15:55:00;;;;;;;0.20;0.20;;;;;;;19.82;40.92;100412.09;18434760;32;20449;-56
2022/09/24 16:05:09;;;;;;;0.20;0.20;;;;;;;19.75;41.36;100409.75;18429364;32;163571;-56
2022/09/24 16:15:14;;;;;;;0.10;0.10;;;;;;;19.58;41.14;100399.84;18435347;32;20107;-56
2022/09/24 16:25:19;;;;;;;0.20;0.20;;;;;;;19.53;42.63;100402.66;18420681;32;20146;-56
2022/09/24 16:35:22;;;;;;;0.17;0.17;;;;;;;19.44;41.43;100390.63;18433418;32;20101;-56
2022/09/24 16:45:27;;;;;;;0.30;0.30;;;;;;;19.32;43.23;100396.41;18432694;32;20158;-56
2022/09/24 16:55:30;;;;;;;0.30;0.30;;;;;;;19.20;43.50;100395.97;18440935;32;20139;-56
2022/09/24 17:05:39;;;;;;;0.20;0.20;;;;;;;18.98;44.37;100388.84;18433188;32;20151;-56
2022/09/24 17:15:42;;;;;;;0.20;0.20;;;;;;;18.70;45.65;100387.22;18432130;32;20112;-56
2022/09/24 17:25:47;;;;;;;0.20;0.20;;;;;;;18.37;46.75;100392.78;18417757;32;20110;-57
2022/09/24 17:35:53;;;;;;;0.80;0.50;;;;;;;18.08;48.40;100405.19;18440777;32;20659;-57
2022/09/24 17:45:59;;;;;;;0.30;0.30;;;;;;;17.91;49.52;100404.84;18491140;32;20085;-57
2022/09/24 17:56:07;;;;;;;1.25;0.40;;;;;;;17.77;50.11;100416.75;18486581;32;20096;-56
2022/09/24 18:06:13;;;;;;;0.43;0.43;;;;;;;17.69;50.73;100417.00;18487792;32;20096;-57
2022/09/24 18:16:17;;;;;;;0.50;0.50;;;;;;;17.46;51.76;100426.47;18490932;32;20109;-56
2022/09/24 18:26:23;;;;;;;0.43;0.43;;;;;;;17.31;52.94;100427.81;18487317;32;20128;-57
2022/09/24 18:36:26;;;;;;;0.55;0.55;;;;;;;17.22;53.85;100416.69;18489081;32;20457;-56
2022/09/24 18:46:31;;;;;;;0.40;0.40;;;;;;;17.10;54.51;100426.66;18475043;32;20178;-56
2022/09/24 18:56:36;;;;;;;0.60;0.60;;;;;;;16.90;55.93;100427.22;18488404;32;20377;-56
2022/09/24 19:06:42;;;;;;;4.03;0.70;;;;;;;16.64;56.58;100420.88;18490274;32;20115;-56
2022/09/24 19:16:45;;;;;;;0.30;0.30;;;;;;;16.54;56.62;100435.22;18497087;32;20112;-56
2022/09/24 19:26:51;;;;;;;0.77;0.50;;;;;;;16.49;57.14;100444.09;18482202;32;20096;-56
2022/09/24 19:36:55;;;;;;;0.73;0.60;;;;;;;16.36;58.00;100425.12;18495407;32;20385;-56
2022/09/24 19:46:59;;;;;;;0.90;0.70;;;;;;;16.42;57.79;100424.09;18496920;32;20136;-56
2022/09/24 19:57:02;;;;;;;0.50;0.50;;;;;;;16.36;58.55;100424.25;18495587;32;20131;-56
2022/09/24 20:07:07;;;;;;;0.57;0.57;;;;;;;16.33;58.31;100417.28;18480082;32;20106;-56
2022/09/24 20:17:10;;;;;;;0.35;0.35;;;;;;;16.23;58.44;100415.78;18493738;32;20186;-57
2022/09/24 20:37:35;;;;;;;;;;;;;;;15.78;59.61;100408.97;18493554;32;20101;-56
2022/09/24 20:47:41;;;;;;;0.50;0.50;;;;;;;15.67;60.08;100411.84;18480672;32;20074;-56
2022/09/24 20:57:44;;;;;;;2.47;1.02;;;;;;;15.59;60.25;100403.25;18494634;32;20106;-56
2022/09/24 21:07:48;;;;;;;1.10;1.10;;;;;;;15.56;60.34;100404.22;18480482;32;20405;-56
2022/09/24 21:17:52;;;;;;;1.33;1.23;;;;;;;15.46;60.73;100403.53;18479604;32;20081;-56
2022/09/24 21:28:16;;;;;;;0.68;0.68;;;;;;;15.41;61.06;100397.50;18494508;32;20146;-56
2022/09/24 21:38:19;;;;;;;0.40;0.40;;;;;;;15.25;61.54;100399.63;18493232;32;20088;-56
2022/09/24 21:48:24;;;;;;;0.50;0.50;;;;;;;15.19;61.72;100405.88;18492780;32;20108;-57
2022/09/24 21:58:28;;;;;;;0.37;0.37;;;;;;;15.20;62.18;100404.97;18492970;32;20107;-56
2022/09/24 22:08:33;;;;;;;0.57;0.57;;;;;;;15.09;62.33;100402.59;18491387;32;20492;-56
2022/09/24 22:18:36;;;;;;;0.68;0.68;;;;;;;15.05;62.21;100410.56;18454294;32;20177;-56
2022/09/24 22:28:42;;;;;;;1.20;1.05;;;;;;;15.03;62.11;100389.56;18436263;32;20365;-57
2022/09/24 22:38:46;;;;;;;0.82;0.82;;;;;;;14.83;62.51;100400.47;18470865;32;20099;-56
2022/09/24 22:48:51;;;;;;;0.43;0.43;;;;;;;14.63;62.84;100392.97;18496804;32;20434;-56
2022/09/24 22:58:55;;;;;;;1.30;0.50;;;;;;;14.51;63.19;100388.81;18433241;32;20077;-56
2022/09/24 23:09:00;;;;;;;0.52;0.50;;;;;;;14.31;63.52;100376.03;18432583;32;20105;-56
2022/09/24 23:19:05;;;;;;;0.55;0.55;;;;;;;14.09;63.66;100386.91;18432789;32;20093;-56
2022/09/24 23:29:11;;;;;;;1.25;1.05;;;;;;;13.93;63.84;100381.91;18433365;32;20115;-56
2022/09/24 23:39:14;;;;;;;0.50;0.50;;;;;;;13.88;64.01;100387.25;18432233;32;20469;-56
2022/09/24 23:49:19;;;;;;;0.50;0.50;;;;;;;13.94;64.31;100383.69;18431621;32;20115;-57
2022/09/24 23:59:22;;;;;;;2.05;1.20;;;;;;;13.91;64.22;100388.94;18430188;32;20097;-57
